Latest Coastal Weather Observations for King Island Airport

IDV60701

Issued at 10:21 am EST Saturday 7 May 2016 (issued every 10 minutes, with the page automatically refreshed every 10 minutes)

About coastal observations | Map of coastal stations | Coastal observations for VIC | Marine services | Other Formats
Station Details ID: 098017 Name: KING ISLAND AIRPORT Lat: -39.88 Lon: 143.88 Height: 37.0 m
Data from the previous 72 hours. | See also: Recent months at King Island Airport
Date/Time
EST
Temp

°C
Wind Pressure Rain
since 9am
mm
Weather Cloud Vis
km
Sea
Height
m
Swell
Dir
 
Speed
knots
Gust
knots
hPa Trend Height
m
Period
s
Dir
07/10:00am 17.0 E 9 12 1016.6 - 0.0 - - 10 - - - -
07/09:30am 15.6 ESE 7 9 1016.5 - 0.0 - Partly cloudy 10 - - - -
07/09:00am 13.9 E 6 7 1016.6 - 0.0 - - 10 - - - -
07/08:30am 12.9 ESE 6 7 1016.3 - 0.0 - Partly cloudy 10 - - - -
07/08:00am 12.2 E 7 7 1016.1 - 0.0 - - 10 - - - -
07/07:30am 11.7 E 6 7 1016.1 - 0.0 - Partly cloudy 10 - - - -
07/07:00am 12.0 E 6 7 1016.0 - 0.0 - Partly cloudy 10 - - - -
07/06:30am 12.7 E 6 6 1016.0 - 0.0 - Cloudy 10 - - - -
07/06:00am 12.9 E 5 6 1016.0 - 0.0 Rain Cloudy 10 - - - -
07/05:30am 12.9 NE 5 7 1016.0 - 0.0 - Cloudy 10 - - - -
07/05:00am 13.0 NNE 4 5 1016.0 - 0.0 - Partly cloudy 10 - - - -
07/04:30am 12.9 NE 2 4 1015.8 - 0.0 - Cloudy 10 - - - -
07/04:00am 12.7 NE 5 6 1015.6 - 0.0 - Partly cloudy 10 - - - -
07/03:30am 12.2 ENE 3 4 1015.7 - 0.0 - Partly cloudy 10 - - - -
07/03:00am 12.3 E 4 5 1015.9 - 0.0 - Cloudy 10 - - - -
07/02:30am 11.9 E 5 6 1015.7 - 0.0 - Cloudy 10 - - - -
07/02:00am 11.9 E 3 4 1016.0 - 0.0 - Cloudy 10 - - - -
07/01:30am 11.6 E 5 5 1015.8 - 0.0 - Cloudy 10 - - - -
07/01:00am 11.1 E 5 6 1016.0 - 0.0 - Partly cloudy 10 - - - -
07/12:30am 10.6 E 5 5 1016.3 - 0.0 - Partly cloudy 10 - - - -
07/12:00am 10.0 ESE 4 5 1016.5 - 0.0 - Cloudy 10 - - - -
 
Date/Time
EST
Temp

°C
Wind Pressure Rain
since 9am
mm
Weather Cloud Vis
km
Sea
Height
m
Swell
Dir
 
Speed
knots
Gust
knots
hPa Trend Height
m
Period
s
Dir
06/11:30pm 9.8 ESE 5 6 1016.5 - 0.0 - Partly cloudy 10 - - - -
06/11:00pm 9.3 ESE 5 5 1016.5 - 0.0 - Partly cloudy 10 - - - -
06/10:30pm 9.0 E 3 4 1016.4 - 0.0 - Partly cloudy 10 - - - -
06/10:00pm 9.4 CALM 0 0 1016.6 - 0.0 - Partly cloudy 10 - - - -
06/09:30pm 10.8 SW 8 10 1016.4 - 0.0 - Partly cloudy 10 - - - -
06/09:00pm 9.5 ESE 5 6 1016.3 - 0.0 - Mostly clear 10 - - - -
06/08:30pm 9.2 E 5 6 1016.3 - 0.0 - - 10 - - - -
06/08:00pm 12.6 W 6 8 1016.0 - 0.0 - - 10 - - - -
06/07:30pm 12.8 W 7 8 1015.8 - 0.0 - - 10 - - - -
06/07:00pm 13.0 WNW 7 8 1015.7 - 0.0 - - 10 - - - -
06/06:30pm 13.2 WNW 8 9 1015.4 - 0.0 - - 10 - - - -
06/06:00pm 13.4 WNW 8 10 1015.2 - 0.0 - - 10 - - - -
06/05:30pm 13.5 WNW 7 9 1014.9 - 0.0 - - 10 - - - -
06/05:00pm 14.7 WNW 9 11 1014.6 - 0.0 - - 10 - - - -
06/04:30pm 15.7 WNW 12 16 1014.5 - 0.0 - Partly cloudy 10 - - - -
06/04:00pm 16.2 WNW 12 16 1014.3 - 0.0 - Partly cloudy 10 - - - -
06/03:30pm 16.0 WNW 12 16 1014.2 - 0.0 - Cloudy 10 - - - -
06/03:00pm 16.1 W 11 15 1014.1 - 0.0 - Mostly cloudy 10 - - - -
06/02:30pm 16.1 W 13 17 1014.0 - 0.0 - Partly cloudy 10 - - - -
06/02:00pm 16.3 WNW 13 17 1013.9 - 0.0 - Partly cloudy 10 - - - -
06/01:30pm 16.5 W 13 16 1013.7 - 0.0 - Partly cloudy 10 - - - -
06/01:00pm 16.3 WNW 14 17 1013.6 - 0.0 - Cloudy 10 - - - -
06/12:30pm 16.4 WNW 14 17 1013.9 - 0.0 - Partly cloudy 10 - - - -
06/12:00pm 16.0 WNW 16 19 1013.9 - 0.0 - Partly cloudy 10 - - - -
06/11:30am 16.6 WNW 16 20 1014.2 - 0.0 - Partly cloudy 10 - - - -
06/11:00am 15.8 WNW 14 18 1014.2 - 0.0 - Partly cloudy 10 - - - -
06/10:30am 16.3 WNW 12 17 1014.0 - 0.0 - Partly cloudy 10 - - - -
06/10:00am 16.0 NW 14 19 1013.8 - 0.0 - Partly cloudy 10 - - - -
06/09:30am 15.6 WNW 12 16 1013.7 - 0.0 - Partly cloudy 10 - - - -
06/09:00am 15.5 WNW 12 16 1013.6 - 0.6 - Cloudy 10 - - - -
06/08:30am 15.1 WNW 11 14 1013.2 - 0.6 - Partly cloudy 10 - - - -
06/08:00am 14.9 WNW 10 13 1012.8 - 0.6 - Cloudy 10 - - - -
06/07:30am 14.5 WNW 9 12 1012.4 - 0.6 - Cloudy 10 - - - -
06/07:00am 14.1 WNW 8 10 1012.0 - 0.6 - Partly cloudy 10 - - - -
06/06:30am 14.3 W 9 13 1011.9 - 0.6 - Partly cloudy 10 - - - -
06/06:00am 13.9 WNW 7 10 1011.5 - 0.6 Rain Mostly cloudy 10 - - - -
06/05:30am 13.9 W 8 11 1011.1 - 0.4 - Partly cloudy 10 - - - -
06/05:00am 14.1 W 9 13 1010.6 - 0.4 - Partly cloudy 10 - - - -
06/04:37am 14.0 W 10 14 1010.5 - 0.0 - Cloudy 10 - - - -
06/04:30am 14.1 WSW 11 15 1010.6 - 0.0 - Cloudy 9 - - - -
06/04:06am 14.8 W 12 17 1010.1 - 0.0 - Cloudy 10 - - - -
06/04:00am 14.8 W 11 16 1010.1 - 0.0 - Partly cloudy 10 - - - -
06/03:30am 15.7 W 14 21 1009.8 - 0.0 - Partly cloudy 10 - - - -
06/03:22am 16.8 NW 20 26 1009.7 - 0.0 - Partly cloudy 10 - - - -
06/03:00am 17.4 NW 20 25 1009.3 - 0.0 - Cloudy 10 - - - -
06/02:30am 17.3 NW 18 24 1009.2 - 0.0 - Partly cloudy 10 - - - -
06/02:00am 17.3 NNW 19 24 1008.7 - 0.0 - Partly cloudy 10 - - - -
06/01:30am 17.1 NNW 18 22 1008.7 - 0.0 - Partly cloudy 10 - - - -
06/01:00am 17.1 NNW 19 23 1008.5 - 0.0 - Partly cloudy 10 - - - -
06/12:30am 17.4 NNW 20 26 1008.4 - 0.0 - Partly cloudy 10 - - - -
06/12:00am 17.4 NNW 19 26 1008.4 - 0.0 - Partly cloudy 10 - - - -
 
Date/Time
EST
Temp

°C
Wind Pressure Rain
since 9am
mm
Weather Cloud Vis
km
Sea
Height
m
Swell
Dir
 
Speed
knots
Gust
knots
hPa Trend Height
m
Period
s
Dir
05/11:30pm 17.2 NNW 20 26 1008.5 - 0.0 - Partly cloudy 10 - - - -
05/11:00pm 17.3 NNW 19 26 1008.6 - 0.0 - Partly cloudy 10 - - - -
05/10:30pm 17.5 NNW 18 23 1008.6 - 0.0 - Cloudy 10 - - - -
05/10:00pm 17.5 NNW 20 27 1008.7 - 0.0 - Partly cloudy 7 - - - -
05/09:30pm 17.3 N 19 27 1008.9 - 0.0 - Cloudy 7 - - - -
05/09:00pm 17.3 N 20 26 1008.7 - 0.0 - Partly cloudy 7 - - - -
05/08:30pm 17.2 N 19 27 1008.9 - 0.0 - Partly cloudy 10 - - - -
05/08:00pm 17.1 N 17 21 1008.9 - 0.0 - Cloudy 6 - - - -
05/07:30pm 16.7 N 15 19 1008.9 - 0.0 - Partly cloudy 7 - - - -
05/07:00pm 17.0 NNW 17 20 1009.0 - 0.0 - Partly cloudy 10 - - - -
05/06:30pm 17.0 NNW 16 20 1008.7 - 0.0 - Cloudy 10 - - - -
05/06:00pm 16.7 NNW 16 20 1008.6 - 0.0 - Partly cloudy 10 - - - -
05/05:30pm 16.9 NNW 18 22 1008.4 - 0.0 - - 10 - - - -
05/05:00pm 17.1 NNW 17 22 1008.4 - 0.0 - - 10 - - - -
05/04:30pm 17.5 NNW 18 22 1008.5 - 0.0 - - 10 - - - -
05/04:00pm 18.0 NNW 20 28 1008.4 - 0.0 - Partly cloudy 10 - - - -
05/03:30pm 17.8 NNW 23 31 1008.3 - 0.0 - Partly cloudy 10 - - - -
05/03:00pm 18.8 NNW 23 31 1008.5 - 0.0 - Cloudy 10 - - - -
05/02:45pm 18.3 NNW 25 35 1008.6 - 0.0 - Cloudy 10 - - - -
05/02:30pm 18.5 NNW 25 32 1008.6 - 0.0 - Cloudy 10 - - - -
05/02:13pm 18.5 NNW 24 34 1008.7 - 0.0 - Partly cloudy 10 - - - -
05/02:00pm 18.9 NNW 24 31 1008.9 - 0.0 - Partly cloudy 10 - - - -
05/01:30pm 18.5 NNW 24 34 1009.1 - 0.0 - Cloudy 10 - - - -
05/01:10pm 18.3 NNW 21 31 1009.2 - 0.0 - Partly cloudy 10 - - - -
05/01:00pm 18.2 NNW 22 27 1009.4 - 0.0 - Partly cloudy 10 - - - -
05/12:30pm 17.8 NNW 22 29 1009.9 - 0.0 - Cloudy 10 - - - -
05/12:00pm 17.4 NNW 20 25 1010.4 - 0.0 - Cloudy 10 - - - -
05/11:30am 18.2 NNW 23 31 1010.7 - 0.0 - Partly cloudy 10 - - - -
05/11:00am 17.9 NNW 24 34 1011.1 - 0.0 - - 10 - - - -
05/10:58am 17.9 NNW 24 34 1011.1 - 0.0 - - 10 - - - -
05/10:30am 17.7 NNW 25 31 1011.3 - 0.0 - Partly cloudy 10 - - - -
05/10:00am 16.9 NNW 22 30 1011.4 - 0.0 - Partly cloudy 10 - - - -
05/09:30am 17.3 NNW 21 28 1011.4 - 0.0 - Partly cloudy 10 - - - -
05/09:00am 16.4 NNW 21 27 1011.6 - 0.2 - Partly cloudy 10 - - - -
05/08:30am 16.1 NNW 22 28 1011.8 - 0.2 - Cloudy 10 - - - -
05/08:00am 15.9 NNW 24 31 1011.8 - 0.2 - Cloudy 10 - - - -
05/07:30am 15.7 NNW 23 31 1011.6 - 0.2 - Cloudy 10 - - - -
05/07:00am 15.5 NNW 21 30 1011.4 - 0.2 - Cloudy 10 - - - -
05/06:38am 15.4 NNW 23 33 1011.4 - 0.2 - Partly cloudy 10 - - - -
05/06:30am 15.4 NNW 24 30 1011.3 - 0.2 - Partly cloudy 10 - - - -
05/06:00am 15.0 NNW 25 35 1011.3 - 0.2 - Cloudy 10 - - - -
05/05:30am 15.1 NNW 25 38 1011.4 - 0.2 - Cloudy 10 - - - -
05/05:25am 15.3 NNW 22 33 1011.4 - 0.2 - Cloudy 10 - - - -
05/05:00am 14.2 NNW 26 34 1011.3 - 0.2 - Partly cloudy 8 - - - -
05/04:46am 15.4 NNW 22 32 1011.2 - 0.2 - Partly cloudy 10 - - - -
05/04:30am 14.9 NNW 23 31 1011.0 - 0.2 - Partly cloudy 10 - - - -
05/04:00am 15.1 NNW 24 32 1011.1 - 0.2 - Partly cloudy 10 - - - -
05/03:30am 15.2 NNW 23 31 1011.2 - 0.2 - Partly cloudy 10 - - - -
05/03:00am 14.5 NNW 23 31 1011.5 - 0.2 Showers Cloudy 8 - - - -
05/02:47am 15.5 NNW 24 34 1011.6 - 0.2 - Partly cloudy 10 - - - -
05/02:30am 15.3 NNW 24 32 1011.5 - 0.2 - Partly cloudy 10 - - - -
05/02:00am 15.3 NNW 26 34 1011.8 - 0.2 - Partly cloudy 10 - - - -
05/01:30am 15.2 NNW 28 34 1011.9 - 0.2 - Partly cloudy 10 - - - -
05/01:00am 15.1 NNW 27 33 1011.9 - 0.2 - Partly cloudy 10 - - - -
05/12:30am 15.1 NNW 27 34 1011.9 - 0.2 - Cloudy 10 - - - -
05/12:00am 15.2 NNW 24 32 1011.9 - 0.2 - Cloudy 10 - - - -
 
Date/Time
EST
Temp

°C
Wind Pressure Rain
since 9am
mm
Weather Cloud Vis
km
Sea
Height
m
Swell
Dir
 
Speed
knots
Gust
knots
hPa Trend Height
m
Period
s
Dir
04/11:34pm 14.9 NNW 23 33 1011.9 - 0.2 - Partly cloudy 10 - - - -
04/11:30pm 14.9 NNW 23 32 1011.9 - 0.2 - Partly cloudy 10 - - - -
04/11:03pm 14.9 NNW 23 33 1012.1 - 0.2 - Partly cloudy 10 - - - -
04/11:00pm 15.1 NNW 23 29 1012.1 - 0.2 - Partly cloudy 10 - - - -
04/10:30pm 14.9 NNW 25 31 1012.2 - 0.2 - Cloudy 10 - - - -
04/10:00pm 14.8 NNW 20 26 1012.2 - 0.2 - Partly cloudy 10 - - - -
04/09:30pm 14.8 NNW 25 31 1012.2 - 0.2 - Partly cloudy 10 - - - -
04/09:00pm 15.1 NNW 23 30 1012.3 - 0.2 - Mostly cloudy 10 - - - -
04/08:30pm 15.1 NW 23 29 1012.3 - 0.2 - Cloudy 10 - - - -
04/08:00pm 14.8 NW 24 31 1012.3 - 0.2 - Partly cloudy 10 - - - -
04/07:30pm 14.7 NW 24 31 1012.2 - 0.2 - Partly cloudy 10 - - - -
04/07:00pm 14.5 NW 24 31 1012.0 - 0.2 - Partly cloudy 10 - - - -
04/06:49pm 14.4 NW 21 31 1011.9 - 0.2 - Partly cloudy 10 - - - -
04/06:30pm 14.3 NW 23 31 1011.7 - 0.2 - Partly cloudy 10 - - - -
04/06:00pm 14.6 NW 24 30 1011.3 - 0.2 - Cloudy 10 - - - -
04/05:30pm 13.8 NW 20 29 1011.1 - 0.2 - Partly cloudy 10 - - - -
04/05:23pm 14.3 NW 18 29 1011.1 - 0.2 - Partly cloudy 10 - - - -
04/05:00pm 13.8 NW 23 29 1010.9 - 0.2 - Partly cloudy 10 - - - -
04/04:30pm 13.6 NW 20 28 1011.0 - 0.2 - Partly cloudy 10 - - - -
04/04:00pm 13.7 NW 18 28 1010.8 - 0.2 - Partly cloudy 10 - - - -
04/03:59pm 13.6 NW 18 28 1010.8 - 0.2 - Partly cloudy 10 - - - -
04/03:58pm 13.4 NW 17 28 1010.8 - 0.2 - Partly cloudy 10 - - - -
04/03:44pm 12.5 NW 20 25 1011.1 - 0.2 - Partly cloudy 5 - - - -
04/03:30pm 12.9 NW 19 24 1011.0 - 0.2 - Partly cloudy 10 - - - -
04/03:17pm 12.2 NW 26 36 1011.2 - 0.2 - Partly cloudy 4 - - - -
04/03:13pm 12.2 NW 27 36 1011.3 - 0.2 - Partly cloudy 5 - - - -
04/03:08pm 12.9 NW 23 36 1011.1 - 0.0 - Partly cloudy 10 - - - -
04/03:00pm 13.9 NW 22 29 1011.0 - 0.0 Rain Cloudy 10 - - - -
04/02:33pm 12.5 NW 22 32 1011.0 - 0.0 - Partly cloudy 6 - - - -
04/02:30pm 12.5 WNW 24 32 1011.1 - 0.0 - Partly cloudy 7 - - - -
04/02:17pm 13.3 NW 24 35 1011.1 - 0.0 - Partly cloudy 10 - - - -
04/02:00pm 14.3 NW 24 29 1010.8 - 0.0 - Partly cloudy 10 - - - -
04/01:30pm 13.9 NW 24 31 1011.1 - 0.0 - Partly cloudy 10 - - - -
04/01:15pm 13.5 NW 24 34 1011.2 - 0.0 - Partly cloudy 10 - - - -
04/01:00pm 14.8 NW 23 29 1011.1 - 0.0 - Partly cloudy 10 - - - -
04/12:30pm 14.9 NW 20 26 1011.4 - 0.0 - Partly cloudy 10 - - - -
04/12:00pm 15.0 NW 21 26 1011.6 - 0.0 - Partly cloudy 10 - - - -
04/11:30am 14.3 NW 19 25 1011.9 - 0.0 - Partly cloudy 10 - - - -
04/11:00am 14.3 WNW 19 24 1012.0 - 0.0 - Partly cloudy 10 - - - -
04/10:30am 14.6 WNW 18 26 1011.9 - 0.0 - Partly cloudy 10 - - - -

Other Formats:

Comma delimited format used in spreadsheet applications
http://www.bom.gov.au/fwo/IDV60701/IDV60701.94850.axf

JavaScript Object Notation format (JSON) in row-major order
http://www.bom.gov.au/fwo/IDV60701/IDV60701.94850.json